sensor_id;sensor_type;location;lat;lon;timestamp;temperature;humidity
68842;SHT35;55849;48.482;2.332;2023-05-07T00:02:08;18.63;78.58
68842;SHT35;55849;48.482;2.332;2023-05-07T00:05:11;18.60;77.46
68842;SHT35;55849;48.482;2.332;2023-05-07T00:08:12;18.60;78.10
68842;SHT35;55849;48.482;2.332;2023-05-07T00:11:14;18.57;78.33
68842;SHT35;55849;48.482;2.332;2023-05-07T00:14:17;18.56;77.55
68842;SHT35;55849;48.482;2.332;2023-05-07T00:17:19;18.50;78.37
68842;SHT35;55849;48.482;2.332;2023-05-07T00:20:20;18.48;78.16
68842;SHT35;55849;48.482;2.332;2023-05-07T00:23:22;18.45;78.66
68842;SHT35;55849;48.482;2.332;2023-05-07T00:26:24;18.45;78.80
68842;SHT35;55849;48.482;2.332;2023-05-07T00:29:27;18.43;79.25
68842;SHT35;55849;48.482;2.332;2023-05-07T00:32:28;18.43;79.26
68842;SHT35;55849;48.482;2.332;2023-05-07T00:35:30;18.43;78.17
68842;SHT35;55849;48.482;2.332;2023-05-07T00:38:31;18.42;79.20
68842;SHT35;55849;48.482;2.332;2023-05-07T00:41:33;18.39;79.24
68842;SHT35;55849;48.482;2.332;2023-05-07T00:44:36;18.39;79.20
68842;SHT35;55849;48.482;2.332;2023-05-07T00:47:37;18.39;79.25
68842;SHT35;55849;48.482;2.332;2023-05-07T00:50:39;18.38;79.35
68842;SHT35;55849;48.482;2.332;2023-05-07T00:53:41;18.36;79.50
68842;SHT35;55849;48.482;2.332;2023-05-07T00:56:42;18.38;77.92
68842;SHT35;55849;48.482;2.332;2023-05-07T00:59:46;18.36;78.72
68842;SHT35;55849;48.482;2.332;2023-05-07T01:02:48;18.33;78.58
68842;SHT35;55849;48.482;2.332;2023-05-07T01:05:50;18.31;79.38
68842;SHT35;55849;48.482;2.332;2023-05-07T01:08:54;18.31;79.31
68842;SHT35;55849;48.482;2.332;2023-05-07T01:11:57;18.31;79.52
68842;SHT35;55849;48.482;2.332;2023-05-07T01:15:02;18.28;79.62
68842;SHT35;55849;48.482;2.332;2023-05-07T01:18:04;18.25;79.27
68842;SHT35;55849;48.482;2.332;2023-05-07T01:21:07;18.24;79.28
68842;SHT35;55849;48.482;2.332;2023-05-07T01:24:11;18.26;79.83
68842;SHT35;55849;48.482;2.332;2023-05-07T01:27:13;18.28;79.84
68842;SHT35;55849;48.482;2.332;2023-05-07T01:30:16;18.28;79.89
68842;SHT35;55849;48.482;2.332;2023-05-07T01:33:21;18.21;78.33
68842;SHT35;55849;48.482;2.332;2023-05-07T01:36:23;18.21;79.91
68842;SHT35;55849;48.482;2.332;2023-05-07T01:39:29;18.21;79.71
68842;SHT35;55849;48.482;2.332;2023-05-07T01:42:31;18.18;79.52
68842;SHT35;55849;48.482;2.332;2023-05-07T01:45:34;18.17;78.08
68842;SHT35;55849;48.482;2.332;2023-05-07T01:48:35;18.14;77.97
68842;SHT35;55849;48.482;2.332;2023-05-07T01:51:38;18.14;79.87
68842;SHT35;55849;48.482;2.332;2023-05-07T01:54:42;18.14;79.77
68842;SHT35;55849;48.482;2.332;2023-05-07T01:57:43;18.14;79.84
68842;SHT35;55849;48.482;2.332;2023-05-07T02:00:45;18.11;80.21
68842;SHT35;55849;48.482;2.332;2023-05-07T02:03:47;18.15;80.29
68842;SHT35;55849;48.482;2.332;2023-05-07T02:06:49;18.11;80.02
68842;SHT35;55849;48.482;2.332;2023-05-07T02:09:52;18.11;80.55
68842;SHT35;55849;48.482;2.332;2023-05-07T02:12:54;18.11;80.50
68842;SHT35;55849;48.482;2.332;2023-05-07T02:15:55;18.09;80.21
68842;SHT35;55849;48.482;2.332;2023-05-07T02:18:57;18.12;80.26
68842;SHT35;55849;48.482;2.332;2023-05-07T02:21:59;18.12;80.17
68842;SHT35;55849;48.482;2.332;2023-05-07T02:25:02;18.09;79.82
68842;SHT35;55849;48.482;2.332;2023-05-07T02:28:04;18.09;80.15
68842;SHT35;55849;48.482;2.332;2023-05-07T02:31:06;18.12;80.25
68842;SHT35;55849;48.482;2.332;2023-05-07T02:34:07;18.08;80.23
68842;SHT35;55849;48.482;2.332;2023-05-07T02:37:09;18.11;80.12
68842;SHT35;55849;48.482;2.332;2023-05-07T02:40:12;18.09;79.85
68842;SHT35;55849;48.482;2.332;2023-05-07T02:43:14;18.09;80.29
68842;SHT35;55849;48.482;2.332;2023-05-07T02:46:16;18.09;80.10
68842;SHT35;55849;48.482;2.332;2023-05-07T02:49:17;18.07;79.75
68842;SHT35;55849;48.482;2.332;2023-05-07T02:52:19;18.08;80.19
68842;SHT35;55849;48.482;2.332;2023-05-07T02:55:22;18.08;80.34
68842;SHT35;55849;48.482;2.332;2023-05-07T02:58:24;18.07;80.41
68842;SHT35;55849;48.482;2.332;2023-05-07T03:01:26;18.07;80.32
68842;SHT35;55849;48.482;2.332;2023-05-07T03:04:27;18.05;80.52
68842;SHT35;55849;48.482;2.332;2023-05-07T03:07:29;18.07;79.64
68842;SHT35;55849;48.482;2.332;2023-05-07T03:10:32;18.05;80.38
68842;SHT35;55849;48.482;2.332;2023-05-07T03:13:33;18.05;79.33
68842;SHT35;55849;48.482;2.332;2023-05-07T03:16:35;18.04;79.84
68842;SHT35;55849;48.482;2.332;2023-05-07T03:19:37;18.01;80.69
68842;SHT35;55849;48.482;2.332;2023-05-07T03:22:39;18.02;80.02
68842;SHT35;55849;48.482;2.332;2023-05-07T03:25:42;18.01;80.02
68842;SHT35;55849;48.482;2.332;2023-05-07T03:28:43;18.02;80.62
68842;SHT35;55849;48.482;2.332;2023-05-07T03:31:45;18.04;80.42
68842;SHT35;55849;48.482;2.332;2023-05-07T03:34:47;18.04;80.69
68842;SHT35;55849;48.482;2.332;2023-05-07T03:37:48;18.02;80.44
68842;SHT35;55849;48.482;2.332;2023-05-07T03:40:52;18.00;80.27
68842;SHT35;55849;48.482;2.332;2023-05-07T03:43:53;18.00;80.27
68842;SHT35;55849;48.482;2.332;2023-05-07T03:46:55;17.97;78.95
68842;SHT35;55849;48.482;2.332;2023-05-07T03:49:57;17.97;80.68
68842;SHT35;55849;48.482;2.332;2023-05-07T03:52:59;17.97;80.88
68842;SHT35;55849;48.482;2.332;2023-05-07T03:56:02;17.94;80.88
68842;SHT35;55849;48.482;2.332;2023-05-07T03:59:04;17.96;80.87
68842;SHT35;55849;48.482;2.332;2023-05-07T04:02:06;17.96;80.14
68842;SHT35;55849;48.482;2.332;2023-05-07T04:05:08;17.90;80.53
68842;SHT35;55849;48.482;2.332;2023-05-07T04:08:09;17.87;81.05
68842;SHT35;55849;48.482;2.332;2023-05-07T04:11:12;17.89;80.96
68842;SHT35;55849;48.482;2.332;2023-05-07T04:14:14;17.89;79.67
68842;SHT35;55849;48.482;2.332;2023-05-07T04:17:15;17.89;80.95
68842;SHT35;55849;48.482;2.332;2023-05-07T04:20:17;17.89;81.03
68842;SHT35;55849;48.482;2.332;2023-05-07T04:23:19;17.87;81.05
68842;SHT35;55849;48.482;2.332;2023-05-07T04:26:22;17.87;81.23
68842;SHT35;55849;48.482;2.332;2023-05-07T04:29:24;17.84;81.48
68842;SHT35;55849;48.482;2.332;2023-05-07T04:32:26;17.84;80.51
68842;SHT35;55849;48.482;2.332;2023-05-07T04:35:29;17.84;81.71
68842;SHT35;55849;48.482;2.332;2023-05-07T04:38:31;17.82;81.28
68842;SHT35;55849;48.482;2.332;2023-05-07T04:41:35;17.83;81.29
68842;SHT35;55849;48.482;2.332;2023-05-07T04:44:37;17.83;81.46
68842;SHT35;55849;48.482;2.332;2023-05-07T04:47:39;17.84;81.24
68842;SHT35;55849;48.482;2.332;2023-05-07T04:50:40;17.83;81.36
68842;SHT35;55849;48.482;2.332;2023-05-07T04:53:42;17.83;81.32
68842;SHT35;55849;48.482;2.332;2023-05-07T04:56:45;17.83;80.94
68842;SHT35;55849;48.482;2.332;2023-05-07T04:59:46;17.80;80.84
68842;SHT35;55849;48.482;2.332;2023-05-07T05:02:48;17.82;82.04
68842;SHT35;55849;48.482;2.332;2023-05-07T05:05:50;17.79;81.93
68842;SHT35;55849;48.482;2.332;2023-05-07T05:08:52;17.79;81.47
68842;SHT35;55849;48.482;2.332;2023-05-07T05:11:56;17.80;81.21
68842;SHT35;55849;48.482;2.332;2023-05-07T05:14:57;17.79;81.26
68842;SHT35;55849;48.482;2.332;2023-05-07T05:17:59;17.79;81.17
68842;SHT35;55849;48.482;2.332;2023-05-07T05:21:00;17.77;80.82
68842;SHT35;55849;48.482;2.332;2023-05-07T05:24:02;17.74;80.31
68842;SHT35;55849;48.482;2.332;2023-05-07T05:27:05;17.74;80.51
68842;SHT35;55849;48.482;2.332;2023-05-07T05:30:07;17.74;80.29
68842;SHT35;55849;48.482;2.332;2023-05-07T05:33:09;17.73;81.33
68842;SHT35;55849;48.482;2.332;2023-05-07T05:36:11;17.72;81.70
68842;SHT35;55849;48.482;2.332;2023-05-07T05:39:13;17.74;81.63
68842;SHT35;55849;48.482;2.332;2023-05-07T05:42:16;17.76;81.11
68842;SHT35;55849;48.482;2.332;2023-05-07T05:45:18;17.73;80.18
68842;SHT35;55849;48.482;2.332;2023-05-07T05:48:19;17.70;81.54
68842;SHT35;55849;48.482;2.332;2023-05-07T05:51:21;17.70;80.90
68842;SHT35;55849;48.482;2.332;2023-05-07T05:54:23;17.70;81.45
68842;SHT35;55849;48.482;2.332;2023-05-07T05:57:26;17.70;81.90
68842;SHT35;55849;48.482;2.332;2023-05-07T06:00:28;17.73;81.24
68842;SHT35;55849;48.482;2.332;2023-05-07T06:03:30;17.73;81.96
68842;SHT35;55849;48.482;2.332;2023-05-07T06:06:32;17.76;81.78
68842;SHT35;55849;48.482;2.332;2023-05-07T06:09:34;17.77;81.96
68842;SHT35;55849;48.482;2.332;2023-05-07T06:12:37;17.79;81.98
68842;SHT35;55849;48.482;2.332;2023-05-07T06:15:38;17.80;81.54
68842;SHT35;55849;48.482;2.332;2023-05-07T06:18:40;17.79;81.15
68842;SHT35;55849;48.482;2.332;2023-05-07T06:21:41;17.82;81.37
68842;SHT35;55849;48.482;2.332;2023-05-07T06:24:43;17.83;81.31
68842;SHT35;55849;48.482;2.332;2023-05-07T06:27:46;17.84;81.04
68842;SHT35;55849;48.482;2.332;2023-05-07T06:30:48;17.83;80.74
68842;SHT35;55849;48.482;2.332;2023-05-07T06:33:50;17.80;80.40
68842;SHT35;55849;48.482;2.332;2023-05-07T06:36:51;17.84;80.80
68842;SHT35;55849;48.482;2.332;2023-05-07T06:39:53;17.84;81.35
68842;SHT35;55849;48.482;2.332;2023-05-07T06:42:56;17.86;81.48
68842;SHT35;55849;48.482;2.332;2023-05-07T06:45:57;17.89;80.86
68842;SHT35;55849;48.482;2.332;2023-05-07T06:48:59;17.89;81.48
68842;SHT35;55849;48.482;2.332;2023-05-07T06:52:01;17.90;81.17
68842;SHT35;55849;48.482;2.332;2023-05-07T06:55:03;17.91;81.41
68842;SHT35;55849;48.482;2.332;2023-05-07T06:58:06;17.93;81.18
68842;SHT35;55849;48.482;2.332;2023-05-07T07:01:08;17.93;80.20
68842;SHT35;55849;48.482;2.332;2023-05-07T07:04:10;17.91;80.58
68842;SHT35;55849;48.482;2.332;2023-05-07T07:07:11;17.91;81.34
68842;SHT35;55849;48.482;2.332;2023-05-07T07:10:13;17.93;81.38
68842;SHT35;55849;48.482;2.332;2023-05-07T07:13:16;17.93;80.74
68842;SHT35;55849;48.482;2.332;2023-05-07T07:16:17;17.94;80.52
68842;SHT35;55849;48.482;2.332;2023-05-07T07:19:19;17.96;81.41
68842;SHT35;55849;48.482;2.332;2023-05-07T07:22:21;17.96;81.61
68842;SHT35;55849;48.482;2.332;2023-05-07T07:25:23;17.97;81.69
68842;SHT35;55849;48.482;2.332;2023-05-07T07:28:26;18.00;81.66
68842;SHT35;55849;48.482;2.332;2023-05-07T07:31:27;18.01;81.80
68842;SHT35;55849;48.482;2.332;2023-05-07T07:34:29;18.04;81.16
68842;SHT35;55849;48.482;2.332;2023-05-07T07:37:30;18.05;81.13
68842;SHT35;55849;48.482;2.332;2023-05-07T07:40:34;18.05;81.08
68842;SHT35;55849;48.482;2.332;2023-05-07T07:43:37;18.07;81.34
68842;SHT35;55849;48.482;2.332;2023-05-07T07:46:39;18.09;81.13
68842;SHT35;55849;48.482;2.332;2023-05-07T07:49:41;18.12;81.53
68842;SHT35;55849;48.482;2.332;2023-05-07T07:52:42;18.15;81.34
68842;SHT35;55849;48.482;2.332;2023-05-07T07:55:44;18.15;81.55
68842;SHT35;55849;48.482;2.332;2023-05-07T07:58:47;18.19;81.68
68842;SHT35;55849;48.482;2.332;2023-05-07T08:01:48;18.24;81.04
68842;SHT35;55849;48.482;2.332;2023-05-07T08:04:52;18.24;81.46
68842;SHT35;55849;48.482;2.332;2023-05-07T08:07:54;18.28;81.91
68842;SHT35;55849;48.482;2.332;2023-05-07T08:10:55;18.29;81.33
68842;SHT35;55849;48.482;2.332;2023-05-07T08:13:58;18.31;81.27
68842;SHT35;55849;48.482;2.332;2023-05-07T08:17:00;18.31;80.43
68842;SHT35;55849;48.482;2.332;2023-05-07T08:20:02;18.31;80.93
68842;SHT35;55849;48.482;2.332;2023-05-07T08:23:04;18.38;80.96
68842;SHT35;55849;48.482;2.332;2023-05-07T08:26:08;18.38;80.73
68842;SHT35;55849;48.482;2.332;2023-05-07T08:29:11;18.39;81.22
68842;SHT35;55849;48.482;2.332;2023-05-07T08:32:13;18.42;80.69
68842;SHT35;55849;48.482;2.332;2023-05-07T08:35:15;18.45;80.68
68842;SHT35;55849;48.482;2.332;2023-05-07T08:38:16;18.43;80.58
68842;SHT35;55849;48.482;2.332;2023-05-07T08:41:18;18.45;80.93
68842;SHT35;55849;48.482;2.332;2023-05-07T08:44:22;18.45;80.88
68842;SHT35;55849;48.482;2.332;2023-05-07T08:47:26;18.48;81.10
68842;SHT35;55849;48.482;2.332;2023-05-07T08:50:30;18.52;81.70
68842;SHT35;55849;48.482;2.332;2023-05-07T08:53:33;18.55;80.91
68842;SHT35;55849;48.482;2.332;2023-05-07T08:56:34;18.61;81.57
68842;SHT35;55849;48.482;2.332;2023-05-07T08:59:37;18.64;81.59
68842;SHT35;55849;48.482;2.332;2023-05-07T09:02:39;18.70;81.53
68842;SHT35;55849;48.482;2.332;2023-05-07T09:05:40;18.74;80.76
68842;SHT35;55849;48.482;2.332;2023-05-07T09:08:49;18.81;80.22
68842;SHT35;55849;48.482;2.332;2023-05-07T09:11:56;18.83;79.82
68842;SHT35;55849;48.482;2.332;2023-05-07T09:15:00;18.87;80.34
68842;SHT35;55849;48.482;2.332;2023-05-07T09:18:03;18.87;80.42
68842;SHT35;55849;48.482;2.332;2023-05-07T09:21:04;18.85;80.14
68842;SHT35;55849;48.482;2.332;2023-05-07T09:24:06;18.83;79.34
68842;SHT35;55849;48.482;2.332;2023-05-07T09:27:08;18.80;79.85
68842;SHT35;55849;48.482;2.332;2023-05-07T09:30:14;18.81;79.02
68842;SHT35;55849;48.482;2.332;2023-05-07T09:33:16;18.77;79.62
68842;SHT35;55849;48.482;2.332;2023-05-07T09:36:18;18.76;79.42
68842;SHT35;55849;48.482;2.332;2023-05-07T09:39:19;18.77;79.31
68842;SHT35;55849;48.482;2.332;2023-05-07T09:42:23;18.76;79.43
68842;SHT35;55849;48.482;2.332;2023-05-07T09:45:26;18.78;79.82
68842;SHT35;55849;48.482;2.332;2023-05-07T09:48:29;18.83;79.72
68842;SHT35;55849;48.482;2.332;2023-05-07T09:51:38;18.90;80.15
68842;SHT35;55849;48.482;2.332;2023-05-07T09:54:41;18.94;80.06
68842;SHT35;55849;48.482;2.332;2023-05-07T09:57:45;19.00;80.91
68842;SHT35;55849;48.482;2.332;2023-05-07T10:00:49;19.07;81.12
68842;SHT35;55849;48.482;2.332;2023-05-07T10:03:52;19.08;80.20
68842;SHT35;55849;48.482;2.332;2023-05-07T10:06:54;19.16;79.41
68842;SHT35;55849;48.482;2.332;2023-05-07T10:09:57;19.16;79.38
68842;SHT35;55849;48.482;2.332;2023-05-07T10:13:01;19.21;79.64
68842;SHT35;55849;48.482;2.332;2023-05-07T10:16:07;19.23;79.37
68842;SHT35;55849;48.482;2.332;2023-05-07T10:19:09;19.25;79.14
68842;SHT35;55849;48.482;2.332;2023-05-07T10:22:13;19.26;80.05
68842;SHT35;55849;48.482;2.332;2023-05-07T10:25:20;19.32;79.45
68842;SHT35;55849;48.482;2.332;2023-05-07T10:28:24;19.33;79.61
68842;SHT35;55849;48.482;2.332;2023-05-07T10:31:42;19.42;79.70
68842;SHT35;55849;48.482;2.332;2023-05-07T10:34:49;19.47;79.12
68842;SHT35;55849;48.482;2.332;2023-05-07T10:37:52;19.46;78.58
68842;SHT35;55849;48.482;2.332;2023-05-07T10:40:54;19.43;79.11
68842;SHT35;55849;48.482;2.332;2023-05-07T10:43:56;19.40;80.02
68842;SHT35;55849;48.482;2.332;2023-05-07T10:47:06;19.37;80.09
68842;SHT35;55849;48.482;2.332;2023-05-07T10:50:22;19.40;80.08
68842;SHT35;55849;48.482;2.332;2023-05-07T10:53:25;19.39;80.67
68842;SHT35;55849;48.482;2.332;2023-05-07T10:56:29;19.42;80.63
68842;SHT35;55849;48.482;2.332;2023-05-07T10:59:35;19.43;79.91
68842;SHT35;55849;48.482;2.332;2023-05-07T11:03:08;19.49;80.52
68842;SHT35;55849;48.482;2.332;2023-05-07T11:06:12;19.54;80.90
68842;SHT35;55849;48.482;2.332;2023-05-07T11:09:14;19.60;79.85
68842;SHT35;55849;48.482;2.332;2023-05-07T11:12:16;19.64;80.05
68842;SHT35;55849;48.482;2.332;2023-05-07T11:15:43;19.69;79.96
68842;SHT35;55849;48.482;2.332;2023-05-07T11:18:48;19.73;79.90
68842;SHT35;55849;48.482;2.332;2023-05-07T11:21:50;19.77;79.51
68842;SHT35;55849;48.482;2.332;2023-05-07T11:24:52;19.81;79.86
68842;SHT35;55849;48.482;2.332;2023-05-07T11:27:54;19.85;79.89
68842;SHT35;55849;48.482;2.332;2023-05-07T11:30:56;19.89;79.23
68842;SHT35;55849;48.482;2.332;2023-05-07T11:33:59;19.95;79.33
68842;SHT35;55849;48.482;2.332;2023-05-07T11:37:02;19.99;79.75
68842;SHT35;55849;48.482;2.332;2023-05-07T11:40:05;20.09;79.27
68842;SHT35;55849;48.482;2.332;2023-05-07T11:43:10;20.18;79.89
68842;SHT35;55849;48.482;2.332;2023-05-07T11:46:12;20.23;77.39
68842;SHT35;55849;48.482;2.332;2023-05-07T11:49:16;20.28;76.51
68842;SHT35;55849;48.482;2.332;2023-05-07T11:52:19;20.28;77.61
68842;SHT35;55849;48.482;2.332;2023-05-07T11:55:21;20.29;78.19
68842;SHT35;55849;48.482;2.332;2023-05-07T11:58:24;20.33;78.06
68842;SHT35;55849;48.482;2.332;2023-05-07T12:01:26;20.41;78.38
68842;SHT35;55849;48.482;2.332;2023-05-07T12:04:31;20.53;78.75
68842;SHT35;55849;48.482;2.332;2023-05-07T12:07:33;20.63;78.73
68842;SHT35;55849;48.482;2.332;2023-05-07T12:10:40;20.70;77.30
68842;SHT35;55849;48.482;2.332;2023-05-07T12:13:42;20.77;77.41
68842;SHT35;55849;48.482;2.332;2023-05-07T12:16:44;20.82;78.19
68842;SHT35;55849;48.482;2.332;2023-05-07T12:19:48;20.87;78.74
68842;SHT35;55849;48.482;2.332;2023-05-07T12:22:50;20.96;77.29
68842;SHT35;55849;48.482;2.332;2023-05-07T12:25:52;21.12;77.07
68842;SHT35;55849;48.482;2.332;2023-05-07T12:28:54;21.25;76.79
68842;SHT35;55849;48.482;2.332;2023-05-07T12:31:56;21.36;76.99
68842;SHT35;55849;48.482;2.332;2023-05-07T12:34:59;21.43;75.85
68842;SHT35;55849;48.482;2.332;2023-05-07T12:38:00;21.44;75.19
68842;SHT35;55849;48.482;2.332;2023-05-07T12:41:05;21.44;75.92
68842;SHT35;55849;48.482;2.332;2023-05-07T12:44:07;21.40;75.31
68842;SHT35;55849;48.482;2.332;2023-05-07T12:47:09;21.41;75.87
68842;SHT35;55849;48.482;2.332;2023-05-07T12:50:12;21.34;76.32
68842;SHT35;55849;48.482;2.332;2023-05-07T12:53:14;21.32;74.96
68842;SHT35;55849;48.482;2.332;2023-05-07T12:56:16;21.27;75.24
68842;SHT35;55849;48.482;2.332;2023-05-07T12:59:17;21.18;75.52
68842;SHT35;55849;48.482;2.332;2023-05-07T13:02:19;21.16;75.29
68842;SHT35;55849;48.482;2.332;2023-05-07T13:05:22;21.05;75.79
68842;SHT35;55849;48.482;2.332;2023-05-07T13:08:25;20.99;76.69
68842;SHT35;55849;48.482;2.332;2023-05-07T13:11:27;20.92;76.62
68842;SHT35;55849;48.482;2.332;2023-05-07T13:14:29;20.84;77.60
68842;SHT35;55849;48.482;2.332;2023-05-07T13:17:30;20.77;77.51
68842;SHT35;55849;48.482;2.332;2023-05-07T13:20:33;20.73;77.72
68842;SHT35;55849;48.482;2.332;2023-05-07T13:23:35;20.67;77.95
68842;SHT35;55849;48.482;2.332;2023-05-07T13:26:38;20.61;77.58
68842;SHT35;55849;48.482;2.332;2023-05-07T13:29:40;20.57;77.81
68842;SHT35;55849;48.482;2.332;2023-05-07T13:32:41;20.51;77.72
68842;SHT35;55849;48.482;2.332;2023-05-07T13:35:44;20.49;77.59
68842;SHT35;55849;48.482;2.332;2023-05-07T13:38:46;20.44;77.81
68842;SHT35;55849;48.482;2.332;2023-05-07T13:41:48;20.40;77.93
68842;SHT35;55849;48.482;2.332;2023-05-07T13:44:49;20.39;78.75
68842;SHT35;55849;48.482;2.332;2023-05-07T13:47:51;20.34;78.01
68842;SHT35;55849;48.482;2.332;2023-05-07T13:50:54;20.34;78.56
68842;SHT35;55849;48.482;2.332;2023-05-07T13:53:56;20.36;78.83
68842;SHT35;55849;48.482;2.332;2023-05-07T13:56:58;20.40;78.91
68842;SHT35;55849;48.482;2.332;2023-05-07T14:00:01;20.47;79.28
68842;SHT35;55849;48.482;2.332;2023-05-07T14:03:04;20.56;79.19
68842;SHT35;55849;48.482;2.332;2023-05-07T14:06:07;20.64;79.74
68842;SHT35;55849;48.482;2.332;2023-05-07T14:09:09;20.77;78.36
68842;SHT35;55849;48.482;2.332;2023-05-07T14:12:13;20.84;78.04
68842;SHT35;55849;48.482;2.332;2023-05-07T14:15:15;20.91;77.36
68842;SHT35;55849;48.482;2.332;2023-05-07T14:18:17;20.98;79.12
68842;SHT35;55849;48.482;2.332;2023-05-07T14:21:19;21.02;77.05
68842;SHT35;55849;48.482;2.332;2023-05-07T14:24:21;21.05;77.49
68842;SHT35;55849;48.482;2.332;2023-05-07T14:27:23;21.06;77.84
68842;SHT35;55849;48.482;2.332;2023-05-07T14:30:24;21.10;77.74
68842;SHT35;55849;48.482;2.332;2023-05-07T14:33:26;21.09;76.92
68842;SHT35;55849;48.482;2.332;2023-05-07T14:36:29;21.10;78.26
68842;SHT35;55849;48.482;2.332;2023-05-07T14:39:32;21.12;78.47
68842;SHT35;55849;48.482;2.332;2023-05-07T14:42:33;21.15;77.76
68842;SHT35;55849;48.482;2.332;2023-05-07T14:45:35;21.15;76.85
68842;SHT35;55849;48.482;2.332;2023-05-07T14:48:36;21.19;76.71
68842;SHT35;55849;48.482;2.332;2023-05-07T14:51:39;21.20;76.93
68842;SHT35;55849;48.482;2.332;2023-05-07T14:54:41;21.25;76.95
68842;SHT35;55849;48.482;2.332;2023-05-07T14:57:42;21.30;77.33
68842;SHT35;55849;48.482;2.332;2023-05-07T15:00:44;21.36;77.96
68842;SHT35;55849;48.482;2.332;2023-05-07T15:03:46;21.47;77.46
68842;SHT35;55849;48.482;2.332;2023-05-07T15:06:49;21.60;77.71
68842;SHT35;55849;48.482;2.332;2023-05-07T15:09:50;21.77;78.13
68842;SHT35;55849;48.482;2.332;2023-05-07T15:12:52;21.91;77.28
68842;SHT35;55849;48.482;2.332;2023-05-07T15:15:54;22.14;77.15
68842;SHT35;55849;48.482;2.332;2023-05-07T15:18:55;22.36;78.67
68842;SHT35;55849;48.482;2.332;2023-05-07T15:22:00;22.58;78.09
68842;SHT35;55849;48.482;2.332;2023-05-07T15:25:03;22.85;77.22
68842;SHT35;55849;48.482;2.332;2023-05-07T15:28:06;23.10;75.69
68842;SHT35;55849;48.482;2.332;2023-05-07T15:31:08;23.34;75.09
68842;SHT35;55849;48.482;2.332;2023-05-07T15:37:21;23.62;74.81
68842;SHT35;55849;48.482;2.332;2023-05-07T15:40:23;23.73;73.65
68842;SHT35;55849;48.482;2.332;2023-05-07T15:43:24;23.90;73.57
68842;SHT35;55849;48.482;2.332;2023-05-07T15:46:26;24.05;72.68
68842;SHT35;55849;48.482;2.332;2023-05-07T15:49:28;24.13;71.84
68842;SHT35;55849;48.482;2.332;2023-05-07T15:52:31;24.21;71.80
68842;SHT35;55849;48.482;2.332;2023-05-07T15:55:33;24.31;71.47
68842;SHT35;55849;48.482;2.332;2023-05-07T15:58:35;24.47;72.41
68842;SHT35;55849;48.482;2.332;2023-05-07T16:01:37;24.64;72.14
68842;SHT35;55849;48.482;2.332;2023-05-07T16:04:40;24.83;70.47
68842;SHT35;55849;48.482;2.332;2023-05-07T16:07:43;25.02;69.70
68842;SHT35;55849;48.482;2.332;2023-05-07T16:10:45;25.13;70.54
68842;SHT35;55849;48.482;2.332;2023-05-07T16:13:46;25.24;69.62
68842;SHT35;55849;48.482;2.332;2023-05-07T16:16:48;25.26;68.65
68842;SHT35;55849;48.482;2.332;2023-05-07T16:19:50;25.24;68.11
68842;SHT35;55849;48.482;2.332;2023-05-07T16:22:53;25.26;66.83
68842;SHT35;55849;48.482;2.332;2023-05-07T16:25:55;25.34;67.11
68842;SHT35;55849;48.482;2.332;2023-05-07T16:28:56;25.35;67.27
68842;SHT35;55849;48.482;2.332;2023-05-07T16:31:58;25.37;68.56
68842;SHT35;55849;48.482;2.332;2023-05-07T16:35:00;25.38;66.91
68842;SHT35;55849;48.482;2.332;2023-05-07T16:38:03;25.35;66.51
68842;SHT35;55849;48.482;2.332;2023-05-07T16:41:09;25.26;65.54
68842;SHT35;55849;48.482;2.332;2023-05-07T16:44:10;25.17;66.82
68842;SHT35;55849;48.482;2.332;2023-05-07T16:47:12;25.11;67.57
68842;SHT35;55849;48.482;2.332;2023-05-07T16:50:13;25.00;68.46
68842;SHT35;55849;48.482;2.332;2023-05-07T16:53:16;24.86;68.28
68842;SHT35;55849;48.482;2.332;2023-05-07T16:56:19;24.73;70.03
68842;SHT35;55849;48.482;2.332;2023-05-07T16:59:21;24.52;71.39
68842;SHT35;55849;48.482;2.332;2023-05-07T17:02:23;24.31;70.93
68842;SHT35;55849;48.482;2.332;2023-05-07T17:05:25;24.13;73.60
68842;SHT35;55849;48.482;2.332;2023-05-07T17:08:28;24.02;72.34
68842;SHT35;55849;48.482;2.332;2023-05-07T17:11:29;23.89;74.60
68842;SHT35;55849;48.482;2.332;2023-05-07T17:14:33;23.85;74.32
68842;SHT35;55849;48.482;2.332;2023-05-07T17:17:34;23.81;74.35
68842;SHT35;55849;48.482;2.332;2023-05-07T17:20:36;23.76;73.64
68842;SHT35;55849;48.482;2.332;2023-05-07T17:23:40;23.72;72.79
68842;SHT35;55849;48.482;2.332;2023-05-07T17:26:42;23.65;74.42
68842;SHT35;55849;48.482;2.332;2023-05-07T17:29:43;23.59;73.99
68842;SHT35;55849;48.482;2.332;2023-05-07T17:32:45;23.53;74.09
68842;SHT35;55849;48.482;2.332;2023-05-07T17:35:46;23.46;74.77
68842;SHT35;55849;48.482;2.332;2023-05-07T17:38:49;23.37;73.82
68842;SHT35;55849;48.482;2.332;2023-05-07T17:41:51;23.28;74.56
68842;SHT35;55849;48.482;2.332;2023-05-07T17:44:52;23.20;73.46
68842;SHT35;55849;48.482;2.332;2023-05-07T17:47:55;23.13;74.56
68842;SHT35;55849;48.482;2.332;2023-05-07T17:51:00;23.03;74.65
68842;SHT35;55849;48.482;2.332;2023-05-07T17:54:03;22.98;75.25
68842;SHT35;55849;48.482;2.332;2023-05-07T17:57:04;22.89;74.89
68842;SHT35;55849;48.482;2.332;2023-05-07T18:00:07;22.81;75.05
68842;SHT35;55849;48.482;2.332;2023-05-07T18:03:10;22.76;75.16
68842;SHT35;55849;48.482;2.332;2023-05-07T18:06:11;22.68;74.55
68842;SHT35;55849;48.482;2.332;2023-05-07T18:09:18;22.61;75.39
68842;SHT35;55849;48.482;2.332;2023-05-07T18:12:20;22.51;75.32
68842;SHT35;55849;48.482;2.332;2023-05-07T18:15:22;22.44;75.15
68842;SHT35;55849;48.482;2.332;2023-05-07T18:18:23;22.36;75.26
68842;SHT35;55849;48.482;2.332;2023-05-07T18:21:28;22.26;75.73
68842;SHT35;55849;48.482;2.332;2023-05-07T18:24:31;22.21;75.68
68842;SHT35;55849;48.482;2.332;2023-05-07T18:27:32;22.14;76.15
68842;SHT35;55849;48.482;2.332;2023-05-07T18:30:34;22.10;76.08
68842;SHT35;55849;48.482;2.332;2023-05-07T18:33:36;22.02;76.27
68842;SHT35;55849;48.482;2.332;2023-05-07T18:36:37;21.96;76.21
68842;SHT35;55849;48.482;2.332;2023-05-07T18:39:40;21.89;75.81
68842;SHT35;55849;48.482;2.332;2023-05-07T18:42:42;21.82;75.86
68842;SHT35;55849;48.482;2.332;2023-05-07T18:45:46;21.77;76.04
68842;SHT35;55849;48.482;2.332;2023-05-07T18:48:48;21.65;75.79
68842;SHT35;55849;48.482;2.332;2023-05-07T18:51:50;21.62;75.68
68842;SHT35;55849;48.482;2.332;2023-05-07T18:54:53;21.51;76.08
68842;SHT35;55849;48.482;2.332;2023-05-07T18:57:55;21.49;75.90
68842;SHT35;55849;48.482;2.332;2023-05-07T19:00:56;21.40;75.71
68842;SHT35;55849;48.482;2.332;2023-05-07T19:03:58;21.33;75.99
68842;SHT35;55849;48.482;2.332;2023-05-07T19:07:00;21.27;75.89
68842;SHT35;55849;48.482;2.332;2023-05-07T19:10:03;21.19;76.01
68842;SHT35;55849;48.482;2.332;2023-05-07T19:13:05;21.13;76.27
68842;SHT35;55849;48.482;2.332;2023-05-07T19:16:06;21.06;76.72